Time;durP1;ratioP1;P1;durP2;ratioP2;P2;SDS_P1;SDS_P2;PMS_P1;PMS_P2;Temp;Humidity;BMP_temperature;BMP_pressure;BME280_temperature;BME280_humidity;BME280_pressure;Samples;Min_cycle;Max_cycle;Signal;HPM_P1;HPM_P2
2021/01/09 00:01:58;;;;;;;16.80;11.70;;;;;;;-0.72;74.26;100075.95;1837900;77;21074;-68
2021/01/09 00:04:26;;;;;;;17.55;12.37;;;;;;;-0.74;74.26;100071.28;1830299;77;21113;-67
2021/01/09 00:06:54;;;;;;;17.35;11.70;;;;;;;-0.70;74.29;100079.32;1810522;77;21144;-67
2021/01/09 00:09:22;;;;;;;15.32;11.65;;;;;;;-0.68;74.29;100080.10;1787842;79;21114;-67
2021/01/09 00:11:49;;;;;;;16.27;11.57;;;;;;;-0.69;74.31;100069.34;1847813;77;21746;-67
2021/01/09 00:14:19;;;;;;;13.48;10.38;;;;;;;-0.67;74.33;100071.90;1817841;77;21082;-67
2021/01/09 00:16:48;;;;;;;15.68;11.53;;;;;;;-0.71;74.29;100072.91;1816794;77;21408;-67
2021/01/09 00:19:17;;;;;;;15.55;11.48;;;;;;;-0.76;74.28;100076.98;1845895;77;21054;-67
2021/01/09 00:21:44;;;;;;;12.20;8.65;;;;;;;-0.78;74.30;100065.80;1817577;76;21102;-68
2021/01/09 00:24:12;;;;;;;16.07;11.22;;;;;;;-0.83;74.29;100067.73;1813186;77;22057;-68
2021/01/09 00:26:39;;;;;;;18.27;12.45;;;;;;;-0.85;74.31;100067.41;1818453;77;21074;-68
2021/01/09 00:29:07;;;;;;;12.53;9.40;;;;;;;-0.85;74.34;100061.77;1822441;77;21581;-68
2021/01/09 00:31:35;;;;;;;15.90;10.98;;;;;;;-0.83;74.33;100058.66;1776779;80;21114;-68
2021/01/09 00:34:03;;;;;;;16.85;12.23;;;;;;;-0.88;74.31;100060.56;1776523;80;21145;-68
2021/01/09 00:36:31;;;;;;;17.17;11.83;;;;;;;-0.92;74.32;100066.33;1786055;79;21905;-69
2021/01/09 00:38:59;;;;;;;15.48;11.55;;;;;;;-0.95;74.35;100070.79;1758056;80;21099;-68
2021/01/09 00:41:31;;;;;;;15.25;11.22;;;;;;;-1.00;74.36;100069.65;1792016;79;21149;-68
2021/01/09 00:44:00;;;;;;;14.90;10.80;;;;;;;-1.02;74.42;100070.16;1799290;79;21058;-68
2021/01/09 00:46:29;;;;;;;14.33;10.88;;;;;;;-1.05;74.45;100075.47;1783114;79;21067;-68
2021/01/09 00:48:57;;;;;;;18.35;11.30;;;;;;;-1.10;74.46;100076.52;1779422;79;21879;-69
2021/01/09 00:51:25;;;;;;;14.70;10.98;;;;;;;-1.14;74.53;100069.77;1773994;79;21176;-68
2021/01/09 00:53:52;;;;;;;16.05;11.50;;;;;;;-1.17;74.62;100070.25;1783125;80;21164;-68
2021/01/09 00:56:20;;;;;;;17.23;11.28;;;;;;;-1.20;74.63;100065.19;1789004;80;21074;-68
2021/01/09 00:58:48;;;;;;;15.58;11.20;;;;;;;-1.23;74.71;100066.61;1781386;80;21122;-68
2021/01/09 01:01:16;;;;;;;15.55;11.45;;;;;;;-1.23;74.75;100063.17;1789573;80;22085;-68
2021/01/09 01:03:47;;;;;;;18.90;12.55;;;;;;;-1.24;74.78;100066.22;1756129;80;21129;-68
2021/01/09 01:06:23;;;;;;;16.40;12.05;;;;;;;-1.24;74.80;100061.48;1739791;80;21129;-68
2021/01/09 01:08:52;;;;;;;19.48;8.75;;;;;;;-1.26;74.83;100063.27;1766760;80;21130;-67
2021/01/09 01:11:29;;;;;;;18.42;12.58;;;;;;;-1.29;74.89;100060.79;1774659;80;21410;-67
2021/01/09 01:13:59;;;;;;;18.23;12.88;;;;;;;-1.33;74.92;100059.22;1782466;80;21553;-67
2021/01/09 01:16:27;;;;;;;16.82;11.28;;;;;;;-1.33;75.00;100066.55;1808900;79;21600;-68
2021/01/09 01:18:55;;;;;;;16.37;11.63;;;;;;;-1.33;75.03;100067.84;1788560;79;21584;-69
2021/01/09 01:21:23;;;;;;;15.80;11.65;;;;;;;-1.34;75.05;100060.13;1750377;80;22671;-68
2021/01/09 01:23:51;;;;;;;15.03;11.30;;;;;;;-1.38;75.11;100054.19;1787910;79;21149;-68
2021/01/09 01:26:19;;;;;;;16.57;11.30;;;;;;;-1.38;75.17;100059.38;1803632;79;21493;-68
2021/01/09 01:28:46;;;;;;;15.45;10.85;;;;;;;-1.38;75.25;100053.34;1803864;79;22477;-68
2021/01/09 01:31:14;;;;;;;15.58;10.30;;;;;;;-1.40;75.31;100045.63;1797518;79;21141;-68
2021/01/09 01:33:42;;;;;;;16.32;11.40;;;;;;;-1.38;75.35;100044.28;1782716;79;21563;-68
2021/01/09 01:36:11;;;;;;;15.75;11.50;;;;;;;-1.39;75.40;100031.78;1789287;79;21445;-68
2021/01/09 01:38:38;;;;;;;13.22;9.23;;;;;;;-1.39;75.42;100035.66;1759288;80;21883;-68
2021/01/09 01:41:08;;;;;;;13.10;9.73;;;;;;;-1.37;75.43;100029.97;1843516;77;21066;-68
2021/01/09 01:43:37;;;;;;;12.05;8.40;;;;;;;-1.37;75.43;100032.56;1838790;77;21101;-68
2021/01/09 01:46:07;;;;;;;15.08;11.45;;;;;;;-1.36;75.48;100024.34;1802865;79;21116;-68
2021/01/09 01:48:36;;;;;;;13.28;9.38;;;;;;;-1.35;75.50;100021.72;1771020;80;21138;-68
2021/01/09 01:51:05;;;;;;;15.65;12.18;;;;;;;-1.32;75.53;100022.05;1840998;77;22058;-69
2021/01/09 01:53:33;;;;;;;17.48;12.75;;;;;;;-1.34;75.52;100014.79;1817940;77;22511;-68
2021/01/09 01:56:01;;;;;;;18.25;13.13;;;;;;;-1.34;75.58;100019.97;1825130;77;21322;-68
2021/01/09 01:58:29;;;;;;;14.75;11.90;;;;;;;-1.32;75.61;100031.96;1815373;77;21047;-68
2021/01/09 02:00:56;;;;;;;16.35;10.93;;;;;;;-1.30;75.54;100034.04;1779541;79;21110;-67
2021/01/09 02:03:24;;;;;;;14.50;10.28;;;;;;;-1.28;75.53;100040.00;1824032;77;22952;-67
2021/01/09 02:06:19;;;;;;;14.93;10.75;;;;;;;-1.27;75.57;100028.73;1838238;77;21102;-68
2021/01/09 02:09:04;;;;;;;15.90;12.18;;;;;;;-1.26;75.60;100033.47;1836667;77;21560;-68
2021/01/09 02:11:37;;;;;;;15.13;11.70;;;;;;;-1.28;75.62;100030.09;1821196;77;21050;-67
2021/01/09 02:14:08;;;;;;;15.20;11.53;;;;;;;-1.28;75.66;100031.39;1847154;77;21082;-67
2021/01/09 02:16:36;;;;;;;13.80;10.20;;;;;;;-1.26;75.73;100040.78;1821121;77;22051;-68
2021/01/09 02:19:09;;;;;;;16.80;12.47;;;;;;;-1.24;75.70;100040.30;1774900;79;21134;-67
2021/01/09 02:21:40;;;;;;;15.70;11.43;;;;;;;-1.23;75.73;100033.37;1719648;81;21162;-68
2021/01/09 02:24:14;;;;;;;15.57;11.30;;;;;;;-1.21;75.75;100022.05;1789184;79;21336;-67
2021/01/09 02:26:42;;;;;;;17.95;12.15;;;;;;;-1.18;75.78;100015.45;1833541;77;21045;-67
2021/01/09 02:29:12;;;;;;;16.80;11.48;;;;;;;-1.18;75.72;100023.22;1818585;77;21883;-67
2021/01/09 02:31:57;;;;;;;17.25;12.05;;;;;;;-1.18;75.76;100025.81;1825818;77;21043;-67
2021/01/09 02:34:29;;;;;;;16.87;11.75;;;;;;;-1.16;75.74;100030.52;1842420;77;21101;-68
2021/01/09 02:36:58;;;;;;;15.00;10.65;;;;;;;-1.16;75.81;100038.70;1824854;77;21140;-67
2021/01/09 02:39:28;;;;;;;17.65;12.47;;;;;;;-1.12;75.84;100039.00;1842104;76;21106;-67
2021/01/09 02:41:55;;;;;;;15.63;11.08;;;;;;;-1.11;75.85;100030.33;1826064;77;24292;-67
2021/01/09 02:44:23;;;;;;;14.78;9.58;;;;;;;-1.11;75.89;100027.73;1841278;77;21180;-67
2021/01/09 02:46:51;;;;;;;16.32;11.80;;;;;;;-1.11;75.89;100036.80;1845262;77;21177;-67
2021/01/09 02:49:19;;;;;;;15.55;11.73;;;;;;;-1.12;75.91;100036.87;1848866;77;21079;-67
2021/01/09 02:51:47;;;;;;;20.20;13.80;;;;;;;-1.14;75.96;100023.97;1841720;77;21389;-67
2021/01/09 02:54:15;;;;;;;13.13;9.38;;;;;;;-1.12;76.00;100029.94;1841143;77;22894;-68
2021/01/09 02:56:42;;;;;;;16.75;12.07;;;;;;;-1.10;76.01;100029.88;1838536;77;21173;-67
2021/01/09 02:59:10;;;;;;;14.75;11.15;;;;;;;-1.08;76.02;100018.53;1841358;76;21063;-67
2021/01/09 03:01:40;;;;;;;20.85;15.03;;;;;;;-1.09;76.04;100001.75;1836763;77;21121;-67
2021/01/09 03:04:09;;;;;;;16.48;11.55;;;;;;;-1.08;76.05;99998.26;1817667;77;21132;-67
2021/01/09 03:06:36;;;;;;;19.52;14.73;;;;;;;-1.07;76.08;100014.20;1821309;77;21489;-67
2021/01/09 03:09:05;;;;;;;14.90;10.30;;;;;;;-1.08;76.09;100012.06;1842609;77;21097;-67
2021/01/09 03:11:32;;;;;;;18.20;12.30;;;;;;;-1.06;76.08;100015.47;1830381;77;21528;-67
2021/01/09 03:14:00;;;;;;;19.73;14.85;;;;;;;-1.06;76.08;100015.88;1830169;77;21472;-68
2021/01/09 03:16:28;;;;;;;18.48;14.35;;;;;;;-1.06;76.12;100012.88;1822875;77;21156;-67
2021/01/09 03:18:56;;;;;;;19.17;14.43;;;;;;;-1.03;76.12;100022.27;1827417;77;22132;-66
2021/01/09 03:21:27;;;;;;;17.62;12.28;;;;;;;-1.03;76.10;100027.45;1820916;77;21145;-68
2021/01/09 03:23:54;;;;;;;15.75;10.85;;;;;;;-1.03;76.08;100031.34;1828227;77;21129;-66
2021/01/09 03:26:22;;;;;;;18.77;13.62;;;;;;;-1.04;76.12;100030.95;1831665;77;22699;-67
2021/01/09 03:28:50;;;;;;;19.30;13.00;;;;;;;-1.06;76.13;100028.84;1851836;77;21038;-67
2021/01/09 03:31:18;;;;;;;18.10;13.58;;;;;;;-1.07;76.19;100020.23;1835349;77;23031;-67
2021/01/09 03:33:46;;;;;;;19.02;14.18;;;;;;;-1.06;76.23;100024.95;1827191;77;21150;-67
2021/01/09 03:36:14;;;;;;;14.45;11.08;;;;;;;-1.06;76.26;100023.66;1827382;77;21105;-67
2021/01/09 03:38:42;;;;;;;16.87;13.05;;;;;;;-1.05;76.28;100024.08;1830900;77;21033;-68
2021/01/09 03:41:10;;;;;;;19.12;14.35;;;;;;;-1.05;76.23;100028.81;1843933;77;21101;-68
2021/01/09 03:43:38;;;;;;;20.45;14.25;;;;;;;-1.06;76.24;100032.31;1828977;77;22038;-70
2021/01/09 03:46:06;;;;;;;19.37;14.20;;;;;;;-1.06;76.28;100023.23;1846192;77;21138;-68
2021/01/09 03:48:34;;;;;;;17.85;12.90;;;;;;;-1.06;76.29;100024.53;1785626;79;21126;-67
2021/01/09 03:51:03;;;;;;;21.10;15.00;;;;;;;-1.06;76.29;100027.55;1776964;80;21596;-68
2021/01/09 03:53:31;;;;;;;20.17;14.63;;;;;;;-1.08;76.37;100035.84;1784506;80;21066;-68
2021/01/09 03:55:59;;;;;;;17.32;13.03;;;;;;;-1.10;76.37;100035.90;1769186;80;21953;-67
2021/01/09 03:58:29;;;;;;;17.45;11.65;;;;;;;-1.10;76.42;100036.35;1777041;80;21119;-68
2021/01/09 04:00:56;;;;;;;20.27;14.20;;;;;;;-1.12;76.48;100032.98;1774147;80;21387;-67
2021/01/09 04:03:24;;;;;;;17.17;11.60;;;;;;;-1.15;76.49;100031.35;1767289;80;21162;-67
2021/01/09 04:05:52;;;;;;;34.90;20.50;;;;;;;-1.16;76.58;100030.93;1771420;80;21513;-67
2021/01/09 04:08:20;;;;;;;20.65;14.28;;;;;;;-1.18;76.63;100034.03;1793299;79;22045;-66
2021/01/09 04:10:48;;;;;;;21.40;15.08;;;;;;;-1.18;76.68;100029.70;1788033;79;21062;-67
2021/01/09 04:13:18;;;;;;;20.20;14.98;;;;;;;-1.19;76.72;100039.67;1800091;79;21074;-67
2021/01/09 04:15:45;;;;;;;19.57;12.28;;;;;;;-1.21;76.75;100041.93;1788313;79;21110;-68
2021/01/09 04:18:12;;;;;;;21.73;15.28;;;;;;;-1.20;76.75;100043.62;1807470;79;21464;-67
2021/01/09 04:20:41;;;;;;;18.73;13.48;;;;;;;-1.21;76.79;100044.07;1777346;80;22081;-67
2021/01/09 04:23:09;;;;;;;16.30;11.65;;;;;;;-1.20;76.83;100035.84;1773317;80;21097;-67
2021/01/09 04:25:37;;;;;;;28.60;19.15;;;;;;;-1.20;76.84;100029.36;1767486;80;21035;-67
2021/01/09 04:28:06;;;;;;;18.85;13.72;;;;;;;-1.21;76.84;100035.00;1760188;80;21145;-67
2021/01/09 04:30:34;;;;;;;20.52;13.70;;;;;;;-1.20;76.87;100039.73;1768305;80;21118;-66
2021/01/09 04:33:02;;;;;;;20.72;15.32;;;;;;;-1.22;76.87;100038.50;1752078;80;21904;-66
2021/01/09 04:35:31;;;;;;;19.95;14.25;;;;;;;-1.20;76.88;100044.91;1759444;80;21340;-66
2021/01/09 04:37:59;;;;;;;19.90;14.35;;;;;;;-1.22;76.92;100042.38;1783774;80;21070;-67
2021/01/09 04:40:27;;;;;;;21.68;16.25;;;;;;;-1.21;76.93;100047.12;1772506;80;21173;-67
2021/01/09 04:42:55;;;;;;;19.52;13.98;;;;;;;-1.22;76.94;100046.72;1781414;79;21141;-66
2021/01/09 04:45:23;;;;;;;21.52;14.43;;;;;;;-1.23;76.95;100053.66;1757697;80;22963;-67
2021/01/09 04:47:51;;;;;;;19.57;14.23;;;;;;;-1.23;76.94;100058.84;1793001;80;21054;-67
2021/01/09 04:50:19;;;;;;;18.25;13.03;;;;;;;-1.25;76.96;100060.64;1782552;80;21101;-69
2021/01/09 04:52:48;;;;;;;20.57;14.78;;;;;;;-1.26;77.01;100065.86;1699089;81;21486;-68
2021/01/09 04:55:16;;;;;;;20.35;15.00;;;;;;;-1.28;77.07;100059.89;1752991;80;21141;-68
2021/01/09 04:57:43;;;;;;;16.75;11.57;;;;;;;-1.29;77.12;100057.75;1763048;80;22160;-68
2021/01/09 05:00:13;;;;;;;22.58;16.10;;;;;;;-1.27;77.14;100057.23;1760931;81;21157;-68
2021/01/09 05:02:40;;;;;;;21.52;15.68;;;;;;;-1.27;77.16;100057.69;1764234;80;21370;-69
2021/01/09 05:05:11;;;;;;;23.98;15.80;;;;;;;-1.28;77.25;100057.30;1770605;80;21110;-68
2021/01/09 05:07:39;;;;;;;18.17;13.10;;;;;;;-1.29;77.28;100059.50;1752739;81;21355;-68
2021/01/09 05:10:11;;;;;;;24.45;17.35;;;;;;;-1.27;77.32;100061.58;1777882;80;21481;-68
2021/01/09 05:12:41;;;;;;;25.90;17.52;;;;;;;-1.29;77.33;100059.05;1775282;80;21066;-68
2021/01/09 05:15:10;;;;;;;16.90;12.03;;;;;;;-1.28;77.38;100055.55;1787870;80;21353;-68
2021/01/09 05:17:38;;;;;;;22.45;15.53;;;;;;;-1.25;77.46;100052.87;1780290;80;21062;-68
2021/01/09 05:20:08;;;;;;;18.25;12.60;;;;;;;-1.24;77.49;100059.73;1773996;80;21117;-68
2021/01/09 05:22:38;;;;;;;25.82;18.42;;;;;;;-1.22;77.53;100055.80;1779385;80;22067;-68
2021/01/09 05:25:08;;;;;;;16.23;11.40;;;;;;;-1.22;77.55;100061.82;1718134;81;21137;-67
2021/01/09 05:27:37;;;;;;;21.57;15.28;;;;;;;-1.21;77.60;100063.50;1782474;80;21109;-68
2021/01/09 05:30:07;;;;;;;23.62;15.65;;;;;;;-1.20;77.60;100064.35;1792127;80;21125;-68
2021/01/09 05:32:34;;;;;;;22.10;14.93;;;;;;;-1.19;77.62;100060.40;1772074;80;21189;-68
2021/01/09 05:35:05;;;;;;;18.80;14.05;;;;;;;-1.18;77.70;100059.50;1816253;77;22059;-68
2021/01/09 05:37:33;;;;;;;26.93;18.62;;;;;;;-1.18;77.72;100068.56;1808694;77;21062;-67
2021/01/09 05:40:01;;;;;;;35.98;19.40;;;;;;;-1.17;77.77;100065.08;1816734;77;21051;-67
2021/01/09 05:42:29;;;;;;;40.03;25.97;;;;;;;-1.14;77.84;100065.89;1814553;77;21450;-68
2021/01/09 05:44:57;;;;;;;29.80;21.48;;;;;;;-1.10;77.88;100063.56;1821017;77;21611;-68
2021/01/09 05:47:30;;;;;;;27.07;17.60;;;;;;;-1.07;77.91;100069.92;1826177;77;21900;-67
2021/01/09 05:49:59;;;;;;;23.35;16.00;;;;;;;-1.08;77.92;100069.08;1810164;77;21073;-69
2021/01/09 05:52:28;;;;;;;23.83;16.57;;;;;;;-1.07;77.98;100069.47;1834453;77;21093;-69
2021/01/09 05:54:58;;;;;;;26.75;18.62;;;;;;;-1.05;78.01;100075.47;1833118;77;21420;-68
2021/01/09 05:57:29;;;;;;;29.37;21.10;;;;;;;-1.04;78.03;100078.91;1844423;77;21334;-68
2021/01/09 06:00:08;;;;;;;39.13;27.15;;;;;;;-1.04;78.06;100073.72;1843605;77;21951;-68
2021/01/09 06:02:57;;;;;;;31.87;20.32;;;;;;;-1.02;78.08;100074.05;1829820;77;21181;-69
2021/01/09 06:05:30;;;;;;;28.27;19.45;;;;;;;-0.99;78.07;100076.97;1807439;77;21094;-69
2021/01/09 06:07:58;;;;;;;22.10;16.52;;;;;;;-1.00;78.11;100085.20;1821916;77;21138;-68
2021/01/09 06:10:28;;;;;;;26.00;18.35;;;;;;;-1.00;78.13;100085.66;1834385;77;21156;-67
2021/01/09 06:13:00;;;;;;;24.47;17.37;;;;;;;-1.00;78.19;100086.50;1783502;77;22062;-68
2021/01/09 06:15:31;;;;;;;24.15;17.30;;;;;;;-0.99;78.21;100089.48;1840695;77;21244;-68
2021/01/09 06:18:00;;;;;;;24.32;17.70;;;;;;;-0.99;78.29;100091.23;1823491;77;21149;-67
2021/01/09 06:20:29;;;;;;;25.50;17.82;;;;;;;-0.99;78.31;100089.93;1828610;77;21059;-67
2021/01/09 06:22:58;;;;;;;26.20;18.37;;;;;;;-0.97;78.34;100091.56;1820019;77;21030;-67
2021/01/09 06:25:29;;;;;;;28.50;20.02;;;;;;;-0.96;78.38;100092.44;1829626;77;22828;-67
2021/01/09 06:27:59;;;;;;;27.48;17.35;;;;;;;-0.95;78.38;100090.23;1823230;77;21120;-68
2021/01/09 06:30:27;;;;;;;22.35;16.02;;;;;;;-0.94;78.45;100090.17;1788822;77;21588;-68
2021/01/09 06:32:56;;;;;;;23.55;16.20;;;;;;;-0.93;78.43;100090.56;1817535;77;21404;-68
2021/01/09 06:35:24;;;;;;;24.82;16.82;;;;;;;-0.93;78.48;100094.91;1810032;77;21560;-70
2021/01/09 06:37:54;;;;;;;25.97;20.25;;;;;;;-0.92;78.49;100097.44;1837227;77;21950;-70
2021/01/09 06:40:22;;;;;;;26.02;18.85;;;;;;;-0.91;78.49;100099.58;1838944;77;21135;-67
2021/01/09 06:42:49;;;;;;;27.07;17.65;;;;;;;-0.89;78.54;100101.20;1843309;76;21051;-67
2021/01/09 06:45:18;;;;;;;25.15;17.62;;;;;;;-0.87;78.60;100107.20;1821355;77;21493;-67
2021/01/09 06:47:59;;;;;;;25.62;17.70;;;;;;;-0.86;78.61;100102.86;1755590;79;21110;-68
2021/01/09 06:50:33;;;;;;;27.40;18.67;;;;;;;-0.86;78.67;100102.86;1825733;77;22056;-70
2021/01/09 06:53:02;;;;;;;27.20;18.87;;;;;;;-0.84;78.66;100112.72;1798382;77;21070;-68
2021/01/09 06:55:41;;;;;;;24.07;17.05;;;;;;;-0.82;78.70;100111.36;1825317;77;21054;-68
2021/01/09 06:58:10;;;;;;;22.48;15.58;;;;;;;-0.81;78.71;100112.59;1823551;77;21452;-67
2021/01/09 07:00:38;;;;;;;28.40;18.90;;;;;;;-0.79;78.76;100111.23;1834992;77;21161;-68
2021/01/09 07:03:21;;;;;;;27.20;17.33;;;;;;;-0.79;78.73;100112.08;1823685;77;21894;-68
2021/01/09 07:05:52;;;;;;;29.98;21.30;;;;;;;-0.80;78.81;100114.73;1836678;77;21141;-68
2021/01/09 07:08:29;;;;;;;30.43;20.45;;;;;;;-0.78;78.83;100128.48;1821741;77;21128;-67
2021/01/09 07:10:58;;;;;;;31.33;21.05;;;;;;;-0.79;78.85;100119.86;1821510;77;21400;-68
2021/01/09 07:13:27;;;;;;;70.37;47.00;;;;;;;-0.76;78.85;100124.95;1792523;79;22121;-69
2021/01/09 07:16:14;;;;;;;61.88;41.50;;;;;;;-0.73;78.84;100133.91;1846507;77;21877;-69
2021/01/09 07:18:46;;;;;;;32.05;22.02;;;;;;;-0.72;78.89;100134.30;1826310;77;21168;-68
2021/01/09 07:21:19;;;;;;;28.20;19.07;;;;;;;-0.70;78.86;100135.08;1797469;77;21168;-68
2021/01/09 07:23:56;;;;;;;32.00;21.90;;;;;;;-0.69;78.88;100140.66;1795954;77;21459;-69
2021/01/09 07:26:24;;;;;;;32.28;21.87;;;;;;;-0.68;78.86;100146.23;1785060;77;21464;-68
2021/01/09 07:28:54;;;;;;;23.60;16.55;;;;;;;-0.65;78.87;100139.66;1825356;77;22113;-68
2021/01/09 07:31:24;;;;;;;26.17;19.02;;;;;;;-0.62;78.85;100143.42;1791119;79;21225;-68
2021/01/09 07:33:56;;;;;;;31.52;21.77;;;;;;;-0.60;78.85;100143.36;1776877;79;21162;-73
2021/01/09 07:36:27;;;;;;;29.52;18.70;;;;;;;-0.60;78.84;100138.17;1749609;81;21204;-70
2021/01/09 07:39:03;;;;;;;25.60;18.67;;;;;;;-0.60;78.82;100140.31;1763019;81;21624;-70
2021/01/09 07:41:34;;;;;;;31.77;20.75;;;;;;;-0.60;78.84;100144.66;1746595;80;22057;-67
2021/01/09 07:44:14;;;;;;;46.58;32.33;;;;;;;-0.57;78.88;100147.16;1752027;81;21581;-68
2021/01/09 07:46:56;;;;;;;71.10;48.90;;;;;;;-0.58;78.86;100148.04;1776086;79;21407;-68
2021/01/09 07:49:30;;;;;;;34.27;23.95;;;;;;;-0.55;78.88;100150.54;1770408;80;21125;-68
2021/01/09 07:52:04;;;;;;;67.55;43.68;;;;;;;-0.51;78.88;100152.55;1747147;80;21524;-68
2021/01/09 07:54:43;;;;;;;48.48;32.50;;;;;;;-0.51;78.90;100154.70;1761780;81;21941;-69
2021/01/09 07:57:24;;;;;;;34.35;23.67;;;;;;;-0.49;78.91;100155.93;1757136;81;21130;-68
2021/01/09 08:00:01;;;;;;;35.92;25.48;;;;;;;-0.47;78.89;100155.45;1760033;79;21181;-68
2021/01/09 08:02:33;;;;;;;28.15;19.85;;;;;;;-0.45;78.88;100156.23;1759475;81;21174;-69
2021/01/09 08:05:11;;;;;;;30.88;20.35;;;;;;;-0.42;78.84;100166.48;1754265;81;21211;-69
2021/01/09 08:07:53;;;;;;;30.75;21.52;;;;;;;-0.43;78.80;100166.09;1743432;81;22957;-67
2021/01/09 08:10:30;;;;;;;32.13;22.35;;;;;;;-0.44;78.79;100165.25;1743905;80;21465;-66
2021/01/09 08:13:08;;;;;;;36.48;24.30;;;;;;;-0.41;78.82;100172.06;1757137;80;22237;-67
2021/01/09 08:15:37;;;;;;;28.12;19.37;;;;;;;-0.41;78.83;100165.13;1749193;82;21587;-67
2021/01/09 08:18:07;;;;;;;31.62;22.45;;;;;;;-0.35;78.86;100164.06;1749718;80;21163;-69
2021/01/09 08:20:34;;;;;;;36.55;24.75;;;;;;;-0.33;78.86;100166.98;1761406;80;22073;-68
2021/01/09 08:23:05;;;;;;;31.07;20.82;;;;;;;-0.31;78.79;100163.02;1760786;80;21165;-71
2021/01/09 08:25:37;;;;;;;36.28;23.92;;;;;;;-0.28;78.72;100165.98;1755708;80;21144;-69
2021/01/09 08:28:05;;;;;;;32.03;21.70;;;;;;;-0.25;78.75;100164.55;1779823;79;21137;-70
2021/01/09 08:30:39;;;;;;;33.60;23.00;;;;;;;-0.24;78.68;100164.48;1776980;79;21142;-70
2021/01/09 08:33:16;;;;;;;31.42;21.40;;;;;;;-0.20;78.66;100162.61;1765002;79;22972;-69
2021/01/09 08:35:50;;;;;;;32.48;21.70;;;;;;;-0.15;78.65;100161.54;1728294;82;22178;-69
2021/01/09 08:38:18;;;;;;;31.97;21.27;;;;;;;-0.09;78.54;100166.51;1731807;82;21186;-72
2021/01/09 08:40:46;;;;;;;43.23;28.38;;;;;;;-0.06;78.45;100160.34;1754505;81;21182;-73
2021/01/09 08:43:14;;;;;;;30.35;20.60;;;;;;;-0.02;78.43;100156.70;1732441;82;21584;-68
2021/01/09 08:45:52;;;;;;;35.03;24.20;;;;;;;0.02;78.33;100149.20;1756837;81;21903;-69
2021/01/09 08:48:29;;;;;;;31.45;20.77;;;;;;;0.06;78.20;100150.76;1762956;80;21367;-69
2021/01/09 08:51:08;;;;;;;31.00;21.65;;;;;;;0.10;78.02;100145.85;1760616;80;21465;-69
2021/01/09 08:53:55;;;;;;;23.83;16.27;;;;;;;0.13;77.91;100144.88;1766224;80;21197;-67
2021/01/09 08:56:30;;;;;;;33.42;24.10;;;;;;;0.19;77.89;100139.41;1754904;81;21212;-68
2021/01/09 08:59:04;;;;;;;31.42;20.85;;;;;;;0.25;77.81;100143.08;1760052;81;22191;-68
2021/01/09 09:01:47;;;;;;;29.30;19.45;;;;;;;0.27;77.58;100134.30;1759506;80;21165;-68
2021/01/09 09:04:18;;;;;;;27.93;19.50;;;;;;;0.30;77.41;100132.05;1745993;81;21137;-68
2021/01/09 09:06:48;;;;;;;28.00;19.05;;;;;;;0.31;77.11;100129.00;1751173;81;21341;-68
2021/01/09 09:09:17;;;;;;;26.48;18.17;;;;;;;0.29;76.87;100129.08;1737017;81;21176;-68
2021/01/09 09:11:52;;;;;;;30.65;21.45;;;;;;;0.27;76.88;100129.11;1728590;83;21909;-67
2021/01/09 09:14:20;;;;;;;28.70;19.60;;;;;;;0.31;76.87;100127.70;1729225;80;21177;-66
2021/01/09 09:16:59;;;;;;;26.10;18.75;;;;;;;0.35;76.87;100124.91;1766418;80;21164;-67
2021/01/09 09:19:27;;;;;;;30.30;21.23;;;;;;;0.38;76.84;100127.36;1734616;80;21157;-67
2021/01/09 09:21:59;;;;;;;31.97;23.20;;;;;;;0.44;76.83;100125.82;1750724;80;21157;-67
2021/01/09 09:24:41;;;;;;;29.70;20.75;;;;;;;0.49;76.43;100132.14;1751546;80;22060;-69
2021/01/09 09:27:30;;;;;;;30.55;20.70;;;;;;;0.49;76.34;100135.59;1724671;82;21156;-68
2021/01/09 09:30:09;;;;;;;29.48;22.05;;;;;;;0.51;76.27;100129.86;1752240;80;21185;-68
2021/01/09 09:35:26;;;;;;;29.10;17.87;;;;;;;0.66;75.99;100120.55;1879506;76;29133;-68
2021/01/09 09:37:59;;;;;;;;;;;;;;;0.61;75.67;100128.17;1839577;77;21137;-66
2021/01/09 09:40:30;;;;;;;30.05;20.05;;;;;;;0.57;75.69;100126.98;1819727;77;24116;-68
2021/01/09 09:43:17;;;;;;;27.27;18.60;;;;;;;0.55;75.64;100123.61;1797421;79;21144;-67
2021/01/09 09:45:57;;;;;;;30.65;22.05;;;;;;;0.59;75.76;100128.70;1817185;77;21178;-68
2021/01/09 09:48:34;;;;;;;37.75;24.85;;;;;;;0.64;75.75;100121.54;1820702;77;21197;-68
2021/01/09 09:51:08;;;;;;;34.80;23.70;;;;;;;0.68;75.62;100122.66;1825781;77;21488;-68
2021/01/09 09:53:37;;;;;;;30.08;21.10;;;;;;;0.74;75.62;100121.08;1836408;77;22046;-70
2021/01/09 09:56:20;;;;;;;37.15;24.60;;;;;;;0.81;75.62;100116.47;1828852;77;21330;-70
2021/01/09 09:58:52;;;;;;;35.33;22.30;;;;;;;0.84;75.33;100119.77;1803414;77;21149;-69
2021/01/09 10:01:22;;;;;;;33.35;23.70;;;;;;;0.82;75.04;100123.34;1817240;77;21147;-68
2021/01/09 10:03:50;;;;;;;37.17;26.40;;;;;;;0.79;75.04;100115.23;1799802;77;21392;-68
2021/01/09 10:06:19;;;;;;;29.40;20.92;;;;;;;0.79;75.11;100115.23;1838858;77;21942;-68
2021/01/09 10:08:48;;;;;;;33.88;22.05;;;;;;;0.83;75.17;100115.48;1833276;77;21153;-67
2021/01/09 10:11:16;;;;;;;28.62;20.10;;;;;;;0.85;75.19;100110.20;1841793;77;21137;-70
2021/01/09 10:13:44;;;;;;;34.48;23.47;;;;;;;0.85;75.09;100114.11;1817979;77;22478;-70
2021/01/09 10:16:12;;;;;;;28.27;19.80;;;;;;;0.85;74.93;100105.85;1770242;78;21144;-67
2021/01/09 10:18:40;;;;;;;23.62;16.93;;;;;;;0.85;74.93;100109.75;1787502;78;21895;-67
2021/01/09 10:21:07;;;;;;;29.80;21.27;;;;;;;0.89;74.99;100110.48;1777032;79;21143;-67
2021/01/09 10:23:35;;;;;;;31.37;21.95;;;;;;;0.94;75.03;100114.16;1767156;79;21642;-67
2021/01/09 10:26:03;;;;;;;30.27;21.70;;;;;;;0.97;74.85;100105.80;1738200;79;21613;-67
2021/01/09 10:28:31;;;;;;;32.55;22.00;;;;;;;1.03;74.75;100109.86;1767451;80;21400;-66
2021/01/09 10:31:00;;;;;;;33.30;23.42;;;;;;;1.02;74.69;100103.81;1768874;80;21937;-66
2021/01/09 10:33:27;;;;;;;31.48;22.60;;;;;;;1.01;74.45;100107.79;1791564;78;21135;-68
2021/01/09 10:35:56;;;;;;;29.05;20.95;;;;;;;0.97;74.31;100107.09;1773028;80;21183;-67
2021/01/09 10:38:24;;;;;;;31.05;22.70;;;;;;;0.97;74.36;100095.84;1776401;80;21145;-67
2021/01/09 10:40:51;;;;;;;33.98;23.47;;;;;;;0.98;74.47;100108.78;1758588;81;21173;-68
2021/01/09 10:43:19;;;;;;;29.82;21.60;;;;;;;0.98;74.32;100099.67;1779495;80;21838;-69
2021/01/09 10:45:48;;;;;;;31.15;19.55;;;;;;;0.99;74.37;100101.36;1751302;81;21201;-67
2021/01/09 10:48:17;;;;;;;32.58;20.45;;;;;;;1.02;74.43;100101.22;1778396;80;21176;-67
2021/01/09 10:50:45;;;;;;;31.10;21.82;;;;;;;1.03;74.35;100099.00;1748637;81;21420;-69
2021/01/09 10:53:13;;;;;;;28.42;20.20;;;;;;;1.03;74.14;100095.55;1773083;80;21451;-66
2021/01/09 10:55:41;;;;;;;28.87;19.75;;;;;;;1.04;74.19;100094.64;1749153;82;22085;-65
2021/01/09 10:58:09;;;;;;;32.03;23.73;;;;;;;1.05;74.12;100101.06;1755024;81;21184;-68
2021/01/09 11:00:37;;;;;;;32.23;22.10;;;;;;;1.04;73.92;100091.58;1778167;80;21164;-66
2021/01/09 11:03:06;;;;;;;29.20;20.77;;;;;;;1.05;73.95;100098.47;1755129;81;21184;-67
2021/01/09 11:05:39;;;;;;;32.03;21.57;;;;;;;1.01;73.87;100094.33;1771710;80;21172;-66
2021/01/09 11:08:07;;;;;;;29.98;21.30;;;;;;;0.99;73.87;100097.46;1731542;81;21578;-68
2021/01/09 11:10:35;;;;;;;30.75;21.68;;;;;;;1.00;74.05;100102.20;1777392;80;21125;-70
2021/01/09 11:13:04;;;;;;;30.70;21.95;;;;;;;0.98;74.11;100110.53;1777332;80;21193;-69
2021/01/09 11:15:32;;;;;;;30.60;21.02;;;;;;;0.95;74.12;100108.05;1778343;80;21173;-67
2021/01/09 11:18:00;;;;;;;29.90;21.27;;;;;;;0.95;74.07;100110.19;1778139;80;21121;-67
2021/01/09 11:20:27;;;;;;;31.85;22.90;;;;;;;0.94;73.99;100105.91;1773978;80;22108;-65
2021/01/09 11:22:55;;;;;;;31.33;21.68;;;;;;;0.96;73.91;100109.27;1753394;80;21164;-66
2021/01/09 11:25:23;;;;;;;26.95;18.25;;;;;;;0.96;73.64;100103.23;1776515;80;21647;-66
2021/01/09 11:27:51;;;;;;;31.87;22.27;;;;;;;0.98;73.56;100102.73;1772487;80;21093;-66
2021/01/09 11:30:20;;;;;;;29.35;18.67;;;;;;;1.03;73.64;100107.26;1734405;82;21175;-66